Waalre, Netherlands
Current Conditions -  °F | °C
As of 12:12 PM on Tuesday 21 Oct 2014 (Local Time) from EHEH Reporting Station
Overcast Overcast  
Wind Chill: 54°   Ceiling: 1200
Heat Index: 54°   Visibility: 6mi
Dew Point: 52°   Wind: 16mph
Humidity: 94%   Direction: 200°SSW
Pressure: 29.59"   Gusts: NA
Location:  51.39°N, 5.44°E
Report Text: EHEH 211012Z AUTO 20014KT 9999 FEW010 BKN012 OVC015 12/11 Q1002 GRN 21015G25KT 9999 -RADZ FEW010 BKN016 BKN020 TEMPO 21020G32KT 4500 SHRA FEW007 SCT012CB BKN014
Loading
Personal Weather Stations






























Interactive Weather Map
Tropical Storm Tracking
New forecast layout! Learn more

10-Day Weather Forecast

Advertisements
Track Severe Weather on mobile